Fort Severn Airport
CYER : rendu visible

Aérodrome :











RETROUVEZ-NOUS SUR...

 
LOGIN :

S'inscrire | Disclaimer

   EN    FR    IT 

 









Légende :    VFR   VFR Marginal   IFR   IFR Intensif   IFR Très Intensif
Visi : 
Plafond : 
>= 8 km
>= 3000ft
5 à 8 km
1000 à 3000 ft
1500m à 5 km
500 à 1000 ft
800 à 1500m
200 à 500 ft
< 800m
< 200 ft
Symboles :   Orages  Brouillard  Fortes neiges  Fortes précipitations  Vent > 20 kt






- Altitude de l'aérodrome : 48 ft
- Code IATA : YER


CYER - Fort Severn

DERNIER METAR :
  • 300200Z AUTO 34008KT 9SM OVC060 M01/M04 A3015 RMK SLP213

METARs EXPIRÉS :
  • 300100Z AUTO 33010G19KT 9SM FEW031 BKN055 M00/M04 A3015 RMK SLP212
  • 300015Z AUTO 31012G17KT 9SM SCT038 BKN046 OVC060 00/M02 A3015 RMK SLP211
  • 292343Z AUTO 33009G19KT 9SM -SN SCT020 BKN029 OVC036 M00/M03 A3015 RMK SLP211

Prévision TAF périmée.
FIR CZWG / Amérique du Nord



MET'MAP, la Météo Aéronautique d'un coup d'oeil ! - Copyright ORBIFLY Décembre 2007 - Disclaimer

ORBIFLY MET'MAP TEAM :

Programmation & Développement : Alexandra Zaïnal
Sur une idée originale de : Baudouin d'Aumeries
Assistance à la programmation : Marc-Olivier Méhu
Soutien technique & logistique : Manuel Goepfert

Contact : metmap@orbifly.com




SOURCES & CREDITS :

   NOAA       Earth
Advisory